07MA weather

West Pond Heliport
Plymouth, Massachusetts, United States

Public forecast

Using degrees Fahrenheit for public forecast. Weather courtesy of forecast.io.

METAR (pilot weather report)

Closest report is Plymouth Municipal Airport, 1.0 nm (1.8 km) WSW. Retrieved 2019/07/24 04:52 UTC (45 minutes ago):

KPYM 240452Z AUTO 00000KT 10SM -RA FEW080 SCT100 BKN120 17/16 A2993 RMK AO2 RAB42 SLP134 P0000 T01670156 402110167

TAF (pilot weather forecast)

Forecast is more than 12 hours old.

Closest forecast is Cape Cod Coast Guard Air Station, 17.7 nm (32.7 km) SSE. Retrieved 2019/07/23 00:27 UTC (1 day ago):

TAF KFMH 232325Z 2400/2424 35004KT P6SM SCT015 OVC050 FM240800 00000KT P6SM -SHRA OVC025 FM241100 04006KT P6SM VCSH OVC040 FM241400 03007KT P6SM BKN030 FM241900 05008KT P6SM BKN250